createdAt,value
2022-12-23T00:00:52.753Z,100236.03
2022-12-23T00:03:39.431Z,100239.59
2022-12-23T00:06:24.730Z,100236.25
2022-12-23T00:09:10.164Z,100236.97
2022-12-23T00:12:13.666Z,100225.50
2022-12-23T00:15:08.169Z,100234.47
2022-12-23T00:17:53.005Z,100233.88
2022-12-23T00:20:38.190Z,100245.25
2022-12-23T00:23:23.228Z,100231.25
2022-12-23T00:26:12.912Z,100222.25
2022-12-23T00:28:58.633Z,100230.50
2022-12-23T00:31:43.826Z,100247.13
2022-12-23T00:34:29.270Z,100239.28
2022-12-23T00:37:14.253Z,100243.09
2022-12-23T00:40:37.759Z,100243.31
2022-12-23T00:43:22.657Z,100236.03
2022-12-23T00:46:07.784Z,100244.88
2022-12-23T00:49:11.603Z,100250.84
2022-12-23T00:51:56.897Z,100242.69
2022-12-23T00:54:42.168Z,100248.03
2022-12-23T00:57:27.197Z,100258.59
2022-12-23T01:00:12.735Z,100266.56
2022-12-23T01:03:27.352Z,100276.91
2022-12-23T01:06:13.011Z,100290.41
2022-12-23T01:08:57.910Z,100292.78
2022-12-23T01:11:43.290Z,100290.50
2022-12-23T01:14:28.783Z,100298.66
2022-12-23T01:17:15.168Z,100293.16
2022-12-23T01:20:00.864Z,100283.66
2022-12-23T01:22:45.991Z,100315.63
2022-12-23T01:25:31.651Z,100307.19
2022-12-23T01:28:16.777Z,100299.25
2022-12-23T01:31:03.905Z,100296.72
2022-12-23T01:33:49.145Z,100298.38
2022-12-23T01:36:34.357Z,100296.72
2022-12-23T01:39:19.396Z,100294.31
2022-12-23T01:42:24.708Z,100288.88
2022-12-23T01:45:15.967Z,100301.34
2022-12-23T01:48:06.706Z,100283.88
2022-12-23T01:51:05.986Z,100272.38
2022-12-23T01:53:53.869Z,100285.13
2022-12-23T01:56:40.120Z,100276.38
2022-12-23T01:59:44.569Z,100290.81
2022-12-23T02:02:53.199Z,100291.84
2022-12-23T02:05:38.546Z,100286.00
2022-12-23T02:08:42.002Z,100301.38
2022-12-23T02:11:37.829Z,100293.66
2022-12-23T02:15:24.330Z,100276.28
2022-12-23T02:18:18.486Z,100275.38
2022-12-23T02:21:22.213Z,100264.91
2022-12-23T02:24:39.737Z,100262.28
2022-12-23T02:27:30.106Z,100267.63
2022-12-23T02:30:28.313Z,100249.25
2022-12-23T02:33:26.369Z,100275.69
2022-12-23T02:36:37.332Z,100278.09
2022-12-23T02:39:37.203Z,100282.38
2022-12-23T02:42:40.455Z,100279.25
2022-12-23T02:45:34.508Z,100279.25
2022-12-23T02:48:29.902Z,100287.91
2022-12-23T02:51:16.235Z,100295.84
2022-12-23T02:54:05.094Z,100284.34
2022-12-23T02:56:53.976Z,100288.34
2022-12-23T02:59:48.184Z,100296.50
2022-12-23T03:02:40.120Z,100291.28
2022-12-23T03:05:34.756Z,100288.97
2022-12-23T03:08:28.522Z,100282.69
2022-12-23T03:11:18.218Z,100287.19
2022-12-23T03:14:22.076Z,100278.50
2022-12-23T03:17:25.840Z,100277.91
2022-12-23T03:20:13.732Z,100271.84
2022-12-23T03:23:13.459Z,100276.03
2022-12-23T03:26:11.969Z,100276.03
2022-12-23T03:29:19.484Z,100262.31
2022-12-23T03:32:06.844Z,100285.75
2022-12-23T03:34:55.891Z,100279.78
2022-12-23T03:37:45.166Z,100273.81
2022-12-23T03:40:37.179Z,100291.34
2022-12-23T03:43:29.179Z,100293.03
2022-12-23T03:46:22.876Z,100273.72
2022-12-23T03:49:13.860Z,100294.72
2022-12-23T03:52:08.390Z,100283.72
2022-12-23T03:54:57.975Z,100292.09
2022-12-23T03:57:55.908Z,100282.91
2022-12-23T04:00:59.866Z,100282.69
2022-12-23T04:04:03.743Z,100295.66
2022-12-23T04:07:05.981Z,100291.34
2022-12-23T04:09:53.232Z,100283.66
2022-12-23T04:12:39.279Z,100282.91
2022-12-23T04:15:26.670Z,100272.25
2022-12-23T04:18:12.069Z,100272.97
2022-12-23T04:20:58.403Z,100256.47
2022-12-23T04:23:43.423Z,100250.31
2022-12-23T04:26:28.634Z,100237.38
2022-12-23T04:29:13.661Z,100232.16
2022-12-23T04:31:58.890Z,100219.19
2022-12-23T04:34:44.057Z,100199.94
2022-12-23T04:37:28.875Z,100187.84
2022-12-23T04:40:14.317Z,100195.56
2022-12-23T04:42:59.253Z,100183.56
2022-12-23T04:45:44.258Z,100164.47
2022-12-23T04:48:29.203Z,100195.78
2022-12-23T04:51:14.553Z,100175.53
2022-12-23T04:53:59.889Z,100203.50
2022-12-23T04:56:45.083Z,100174.25
2022-12-23T04:59:31.468Z,100190.34
2022-12-23T05:02:16.685Z,100153.59
2022-12-23T05:05:02.179Z,100164.31
2022-12-23T05:07:50.278Z,100160.47
2022-12-23T05:10:35.216Z,100171.13
2022-12-23T05:13:20.126Z,100200.06
2022-12-23T05:16:05.945Z,100180.44
2022-12-23T05:18:51.354Z,100179.38
2022-12-23T05:21:36.531Z,100170.28
2022-12-23T05:24:21.655Z,100185.34
2022-12-23T05:27:06.656Z,100167.16
2022-12-23T05:29:51.974Z,100161.09
2022-12-23T05:32:36.935Z,100142.69
2022-12-23T05:35:24.205Z,100157.31
2022-12-23T05:38:09.485Z,100140.44
2022-12-23T05:40:54.357Z,100153.78
2022-12-23T05:43:39.560Z,100148.56
2022-12-23T05:46:27.098Z,100146.56
2022-12-23T05:49:12.742Z,100141.66
2022-12-23T05:51:57.761Z,100128.50
2022-12-23T05:54:42.736Z,100127.03
2022-12-23T05:57:27.538Z,100131.84
2022-12-23T06:00:13.099Z,100118.13
2022-12-23T06:02:58.501Z,100110.13
2022-12-23T06:05:44.019Z,100126.81
2022-12-23T06:08:29.346Z,100126.81
2022-12-23T06:11:14.363Z,100086.22
2022-12-23T06:13:59.629Z,100114.69
2022-12-23T06:16:44.716Z,100093.19
2022-12-23T06:19:29.916Z,100089.03
2022-12-23T06:22:16.310Z,100086.91
2022-12-23T06:25:01.099Z,100083.81
2022-12-23T06:27:46.592Z,100066.16
2022-12-23T06:30:31.493Z,100052.28
2022-12-23T06:33:16.451Z,100060.16
2022-12-23T06:36:01.292Z,100022.50
2022-12-23T06:38:46.358Z,100039.00
2022-12-23T06:41:31.613Z,100016.81
2022-12-23T06:44:16.781Z,100002.56
2022-12-23T06:47:02.102Z,100014.66
2022-12-23T06:49:47.286Z,100021.78
2022-12-23T06:52:32.557Z,99981.91
2022-12-23T06:55:17.448Z,100011.31
2022-12-23T06:58:04.998Z,100019.06
2022-12-23T07:00:50.352Z,100000.88
2022-12-23T07:03:35.588Z,99971.53
2022-12-23T07:06:20.674Z,99962.13
2022-12-23T07:09:07.249Z,99945.47
2022-12-23T07:11:52.566Z,99964.75
2022-12-23T07:14:37.729Z,99960.34
2022-12-23T07:17:22.958Z,99957.88
2022-12-23T07:20:08.603Z,99938.63
2022-12-23T07:22:57.388Z,99929.84
2022-12-23T07:25:42.588Z,99914.41
2022-12-23T07:28:27.970Z,99901.84
2022-12-23T07:31:13.313Z,99892.47
2022-12-23T07:33:58.650Z,99895.22
2022-12-23T07:36:44.030Z,99871.22
2022-12-23T07:39:29.044Z,99886.66
2022-12-23T07:42:43.471Z,99897.31
2022-12-23T07:45:19.216Z,99869.75
2022-12-23T07:48:04.292Z,99897.31
2022-12-23T07:50:49.642Z,99888.44
2022-12-23T07:53:34.832Z,99886.06
2022-12-23T07:56:19.877Z,99876.44
2022-12-23T07:59:04.999Z,99859.22
2022-12-23T08:01:50.151Z,99846.28
2022-12-23T08:04:38.355Z,99849.69
2022-12-23T08:07:25.923Z,99835.78
2022-12-23T08:10:11.783Z,99844.72
2022-12-23T08:13:00.590Z,99833.22
2022-12-23T08:15:45.767Z,99832.63
2022-12-23T08:18:32.721Z,99815.50
2022-12-23T08:21:19.502Z,99820.53
2022-12-23T08:24:04.849Z,99794.25
2022-12-23T08:26:50.045Z,99790.81
2022-12-23T08:29:36.548Z,99784.16
2022-12-23T08:32:22.113Z,99783.59
2022-12-23T08:35:07.734Z,99784.41
2022-12-23T08:37:52.593Z,99773.97
2022-12-23T08:40:40.617Z,99766.03
2022-12-23T08:43:30.219Z,99762.47
2022-12-23T08:46:19.023Z,99749.75
2022-12-23T08:49:05.875Z,99756.03
2022-12-23T08:51:51.097Z,99742.06
2022-12-23T08:54:36.326Z,99742.66
2022-12-23T08:57:21.287Z,99736.84
2022-12-23T09:00:07.128Z,99736.84
2022-12-23T09:02:52.173Z,99731.41
2022-12-23T09:05:41.997Z,99709.34
2022-12-23T09:08:27.066Z,99660.19
2022-12-23T09:11:19.041Z,99697.97
2022-12-23T09:14:04.717Z,99690.84
2022-12-23T09:16:51.749Z,99680.41
2022-12-23T09:19:36.731Z,99685.50
2022-12-23T09:22:21.796Z,99660.59
2022-12-23T09:25:07.497Z,99687.41
2022-12-23T09:27:52.439Z,99671.38
2022-12-23T09:30:37.544Z,99660.81
2022-12-23T09:33:23.138Z,99654.66
2022-12-23T09:36:08.577Z,99672.00
2022-12-23T09:38:55.674Z,99658.81
2022-12-23T09:41:52.239Z,99630.69
2022-12-23T09:45:13.137Z,99637.69
2022-12-23T09:47:58.926Z,99645.41
2022-12-23T09:50:45.612Z,99641.84
2022-12-23T09:53:52.516Z,99636.41
2022-12-23T09:56:58.579Z,99609.78
2022-12-23T10:00:15.873Z,99631.19
2022-12-23T10:03:38.211Z,99626.34
2022-12-23T10:06:28.158Z,99603.06
2022-12-23T10:09:16.746Z,99593.19
2022-12-23T10:12:14.188Z,99642.56
2022-12-23T10:15:02.559Z,99648.34
2022-12-23T10:17:52.555Z,99635.53
2022-12-23T10:20:41.453Z,99640.75
2022-12-23T10:23:37.412Z,99625.59
2022-12-23T10:26:36.738Z,99634.69
2022-12-23T10:29:30.030Z,99626.00
2022-12-23T10:32:38.084Z,99631.56
2022-12-23T10:35:43.045Z,99604.53
2022-12-23T10:38:56.238Z,99624.28
2022-12-23T10:41:47.238Z,99621.16
2022-12-23T10:45:06.575Z,99621.13
2022-12-23T10:48:11.957Z,99617.31
2022-12-23T10:51:30.376Z,99626.53
2022-12-23T10:54:22.724Z,99616.78
2022-12-23T10:57:08.529Z,99611.06
2022-12-23T10:59:53.748Z,99625.28
2022-12-23T11:02:49.653Z,99628.50
2022-12-23T11:05:35.967Z,99623.00
2022-12-23T11:08:23.486Z,99617.25
2022-12-23T11:11:08.624Z,99614.38
2022-12-23T11:13:53.771Z,99622.56
2022-12-23T11:16:45.651Z,99616.03
2022-12-23T11:19:31.221Z,99614.16
2022-12-23T11:22:25.044Z,99615.22
2022-12-23T11:25:27.658Z,99615.19
2022-12-23T11:28:19.509Z,99613.56
2022-12-23T11:31:09.671Z,99620.09
2022-12-23T11:34:00.408Z,99623.56
2022-12-23T11:37:01.573Z,99632.41
2022-12-23T11:39:50.871Z,99625.53
2022-12-23T11:42:36.125Z,99615.88
2022-12-23T11:45:24.754Z,99620.69
2022-12-23T11:48:36.660Z,99630.41
2022-12-23T11:51:26.699Z,99631.06
2022-12-23T11:54:19.200Z,99645.97
2022-12-23T11:57:07.260Z,99643.78
2022-12-23T11:59:59.600Z,99642.25
2022-12-23T12:02:47.264Z,99650.09
2022-12-23T12:05:37.891Z,99647.06
2022-12-23T12:08:28.302Z,99637.53
2022-12-23T12:11:24.510Z,99647.91
2022-12-23T12:14:21.561Z,99647.75
2022-12-23T12:17:33.450Z,99640.97
2022-12-23T12:20:30.124Z,99649.81
2022-12-23T12:23:25.451Z,99646.19
2022-12-23T12:26:22.065Z,99655.41
2022-12-23T12:29:29.625Z,99640.06
2022-12-23T12:32:40.958Z,99650.88
2022-12-23T12:35:37.653Z,99649.22
2022-12-23T12:38:30.066Z,99644.09
2022-12-23T12:41:21.853Z,99648.41
2022-12-23T12:44:16.026Z,99646.19
2022-12-23T12:47:44.813Z,99637.38
2022-12-23T12:50:29.265Z,99634.63
2022-12-23T12:53:19.217Z,99666.81
2022-12-23T12:56:16.873Z,99655.19
2022-12-23T12:59:02.125Z,99659.06
2022-12-23T13:02:09.086Z,99659.22
2022-12-23T13:05:11.581Z,99637.13
2022-12-23T13:08:15.216Z,99669.72
2022-12-23T13:11:28.947Z,99674.13
2022-12-23T13:14:26.126Z,99679.53
2022-12-23T13:17:24.685Z,99677.59
2022-12-23T13:20:16.185Z,99684.94
2022-12-23T13:23:41.808Z,99684.78
2022-12-23T13:26:51.414Z,99681.59
2022-12-23T13:29:58.522Z,99683.53
2022-12-23T13:32:56.278Z,99686.97
2022-12-23T13:35:41.098Z,99693.75
2022-12-23T13:38:35.913Z,99696.66
2022-12-23T13:41:25.232Z,99701.22
2022-12-23T13:44:13.529Z,99694.72
2022-12-23T13:47:28.402Z,99704.13
2022-12-23T13:50:24.032Z,99704.69
2022-12-23T13:53:35.112Z,99695.00
2022-12-23T13:56:41.665Z,99697.91
2022-12-23T13:59:42.017Z,99709.50
2022-12-23T14:02:36.653Z,99704.66
2022-12-23T14:05:45.162Z,99719.56
2022-12-23T14:08:50.528Z,99726.31
2022-12-23T14:11:36.657Z,99726.34
2022-12-23T14:14:24.979Z,99725.53
2022-12-23T14:17:28.004Z,99732.03
2022-12-23T14:20:48.258Z,99726.22
2022-12-23T14:23:36.358Z,99732.97
2022-12-23T14:26:47.225Z,99750.69
2022-12-23T14:29:49.585Z,99755.66
2022-12-23T14:32:43.892Z,99756.16
2022-12-23T14:35:36.937Z,99767.34
2022-12-23T14:38:32.789Z,99758.91
2022-12-23T14:41:20.399Z,99771.34
2022-12-23T14:44:41.327Z,99771.06
2022-12-23T14:47:36.544Z,99764.13
2022-12-23T14:50:42.654Z,99771.44
2022-12-23T14:53:30.091Z,99779.59
2022-12-23T14:56:15.077Z,99786.63
2022-12-23T14:59:09.223Z,99786.06
2022-12-23T15:01:58.606Z,99785.50
2022-12-23T15:04:50.775Z,99779.56
2022-12-23T15:07:43.484Z,99781.63
2022-12-23T15:10:29.096Z,99790.31
2022-12-23T15:13:19.137Z,99795.56
2022-12-23T15:16:04.220Z,99790.31
2022-12-23T15:18:57.579Z,99799.97
2022-12-23T15:21:46.450Z,99816.81
2022-12-23T15:24:33.710Z,99812.38
2022-12-23T15:27:29.770Z,99821.50
2022-12-23T15:30:17.306Z,99820.22
2022-12-23T15:33:16.103Z,99808.28
2022-12-23T15:36:11.537Z,99833.41
2022-12-23T15:38:58.032Z,99833.53
2022-12-23T15:41:45.301Z,99833.53
2022-12-23T15:44:37.317Z,99855.06
2022-12-23T15:47:29.051Z,99854.25
2022-12-23T15:50:18.266Z,99872.03
2022-12-23T15:53:06.439Z,99877.28
2022-12-23T15:55:51.441Z,99879.91
2022-12-23T15:58:40.317Z,99895.91
2022-12-23T16:01:26.416Z,99884.50
2022-12-23T16:04:20.320Z,99896.53
2022-12-23T16:07:05.738Z,99904.88
2022-12-23T16:09:53.844Z,99902.06
2022-12-23T16:12:40.086Z,99916.38
2022-12-23T16:15:33.066Z,99918.03
2022-12-23T16:18:32.697Z,99925.19
2022-12-23T16:21:18.096Z,99936.19
2022-12-23T16:24:08.512Z,99925.38
2022-12-23T16:26:55.640Z,99944.19
2022-12-23T16:29:40.696Z,99951.91
2022-12-23T16:32:26.464Z,99931.69
2022-12-23T16:35:12.862Z,99950.97
2022-12-23T16:38:09.942Z,99951.13
2022-12-23T16:40:56.663Z,99955.06
2022-12-23T16:43:47.649Z,99953.28
2022-12-23T16:46:39.934Z,99974.66
2022-12-23T16:49:33.011Z,99963.97
2022-12-23T16:52:24.233Z,99960.06
2022-12-23T16:55:15.903Z,99972.47
2022-12-23T16:58:01.307Z,99992.19
2022-12-23T17:00:47.230Z,100017.66
2022-12-23T17:03:32.924Z,100013.13
2022-12-23T17:06:19.034Z,100024.34
2022-12-23T17:09:05.677Z,100033.97
2022-12-23T17:11:53.233Z,100040.88
2022-12-23T17:14:38.718Z,100051.34
2022-12-23T17:17:25.918Z,100045.28
2022-12-23T17:20:12.014Z,100060.28
2022-12-23T17:22:59.921Z,100066.47
2022-12-23T17:25:45.109Z,100059.78
2022-12-23T17:28:32.654Z,100064.22
2022-12-23T17:31:26.200Z,100071.59
2022-12-23T17:34:17.513Z,100082.63
2022-12-23T17:37:03.215Z,100081.94
2022-12-23T17:39:48.888Z,100092.75
2022-12-23T17:42:34.309Z,100090.25
2022-12-23T17:45:26.358Z,100086.31
2022-12-23T17:48:17.941Z,100076.69
2022-12-23T17:51:05.700Z,100096.22
2022-12-23T17:53:57.735Z,100086.22
2022-12-23T17:56:43.244Z,100099.75
2022-12-23T17:59:28.473Z,100103.22
2022-12-23T18:02:32.970Z,100111.09
2022-12-23T18:05:22.198Z,100098.09
2022-12-23T18:08:07.408Z,100105.22
2022-12-23T18:10:52.503Z,100113.09
2022-12-23T18:13:38.015Z,100096.44
2022-12-23T18:16:23.058Z,100110.59
2022-12-23T18:19:19.771Z,100122.84
2022-12-23T18:22:05.027Z,100122.00
2022-12-23T18:24:55.278Z,100120.94
2022-12-23T18:27:44.419Z,100117.97
2022-12-23T18:30:29.859Z,100123.06
2022-12-23T18:33:15.087Z,100120.00
2022-12-23T18:36:00.299Z,100127.34
2022-12-23T18:38:45.532Z,100129.97
2022-12-23T18:41:30.455Z,100113.53
2022-12-23T18:44:19.465Z,100126.72
2022-12-23T18:47:04.469Z,100138.50
2022-12-23T18:49:49.734Z,100148.47
2022-12-23T18:52:35.477Z,100143.44
2022-12-23T18:55:21.297Z,100164.13
2022-12-23T18:58:06.169Z,100158.38
2022-12-23T19:00:53.045Z,100163.94
2022-12-23T19:03:38.185Z,100146.69
2022-12-23T19:06:23.411Z,100154.53
2022-12-23T19:09:08.497Z,100149.41
2022-12-23T19:11:54.359Z,100159.31
2022-12-23T19:14:39.876Z,100161.91
2022-12-23T19:17:24.824Z,100169.03
2022-12-23T19:20:13.010Z,100161.28
2022-12-23T19:22:58.377Z,100162.34
2022-12-23T19:25:49.208Z,100169.59
2022-12-23T19:28:41.321Z,100171.25
2022-12-23T19:31:26.382Z,100189.69
2022-12-23T19:34:14.871Z,100190.59
2022-12-23T19:37:00.988Z,100202.97
2022-12-23T19:39:46.258Z,100198.66
2022-12-23T19:42:31.659Z,100190.66
2022-12-23T19:45:17.151Z,100194.34
2022-12-23T19:48:02.458Z,100215.53
2022-12-23T19:50:57.020Z,100218.47
2022-12-23T19:53:42.459Z,100225.25
2022-12-23T19:56:29.238Z,100234.03
2022-12-23T19:59:14.372Z,100232.16
2022-12-23T20:01:59.722Z,100225.19
2022-12-23T20:04:44.705Z,100250.88
2022-12-23T20:07:30.030Z,100255.88
2022-12-23T20:10:14.931Z,100233.13
2022-12-23T20:12:59.886Z,100250.06
2022-12-23T20:15:44.867Z,100262.38
2022-12-23T20:18:30.320Z,100249.22
2022-12-23T20:21:15.656Z,100251.31
2022-12-23T20:24:01.491Z,100258.44
2022-12-23T20:26:46.847Z,100267.41
2022-12-23T20:29:31.899Z,100258.66
2022-12-23T20:32:16.831Z,100244.75
2022-12-23T20:35:01.808Z,100257.63
2022-12-23T20:37:46.954Z,100262.72
2022-12-23T20:40:31.973Z,100270.78
2022-12-23T20:43:17.002Z,100268.50
2022-12-23T20:46:03.834Z,100274.56
2022-12-23T20:48:49.800Z,100278.94
2022-12-23T20:51:34.888Z,100267.44
2022-12-23T20:54:21.950Z,100268.91
2022-12-23T20:57:10.422Z,100281.03
2022-12-23T20:59:55.518Z,100293.06
2022-12-23T21:02:40.826Z,100281.25
2022-12-23T21:05:26.262Z,100291.88
2022-12-23T21:08:11.364Z,100300.16
2022-12-23T21:10:57.345Z,100302.88
2022-12-23T21:13:43.872Z,100309.84
2022-12-23T21:16:30.729Z,100284.59
2022-12-23T21:19:18.500Z,100306.53
2022-12-23T21:22:03.974Z,100281.22
2022-12-23T21:24:49.205Z,100294.59
2022-12-23T21:27:34.416Z,100297.22
2022-12-23T21:30:19.584Z,100298.16
2022-12-23T21:33:04.666Z,100296.47
2022-12-23T21:35:49.832Z,100296.47
2022-12-23T21:38:37.365Z,100302.44
2022-12-23T21:41:30.541Z,100282.25
2022-12-23T21:44:15.735Z,100292.00
2022-12-23T21:47:00.765Z,100295.34
2022-12-23T21:49:45.617Z,100294.91
2022-12-23T21:52:31.479Z,100307.03
2022-12-23T21:55:18.096Z,100297.44
2022-12-23T21:58:03.174Z,100286.56
2022-12-23T22:00:48.253Z,100293.13
2022-12-23T22:03:33.469Z,100306.94
2022-12-23T22:06:22.061Z,100322.41
2022-12-23T22:09:08.102Z,100314.25
2022-12-23T22:11:52.935Z,100300.34
2022-12-23T22:14:39.411Z,100315.50
2022-12-23T22:17:24.364Z,100309.63
2022-12-23T22:20:09.680Z,100315.31
2022-12-23T22:22:54.678Z,100295.03
2022-12-23T22:25:39.884Z,100320.22
2022-12-23T22:28:25.431Z,100325.25
2022-12-23T22:31:59.929Z,100313.00
2022-12-23T22:34:45.527Z,100326.69
2022-12-23T22:37:31.006Z,100338.09
2022-12-23T22:40:16.172Z,100335.38
2022-12-23T22:43:01.238Z,100340.69
2022-12-23T22:45:46.737Z,100333.91
2022-12-23T22:48:32.307Z,100331.59
2022-12-23T22:51:20.885Z,100346.88
2022-12-23T22:54:06.077Z,100350.19
2022-12-23T22:56:51.182Z,100349.28
2022-12-23T22:59:36.169Z,100350.94
2022-12-23T23:02:21.252Z,100360.56
2022-12-23T23:05:12.317Z,100341.22
2022-12-23T23:07:58.115Z,100352.50
2022-12-23T23:10:43.203Z,100364.22
2022-12-23T23:13:31.216Z,100366.00
2022-12-23T23:16:16.528Z,100380.84
2022-12-23T23:19:02.227Z,100376.53
2022-12-23T23:21:48.784Z,100368.63
2022-12-23T23:24:35.026Z,100371.22
2022-12-23T23:27:19.929Z,100357.09
2022-12-23T23:30:05.279Z,100359.72
2022-12-23T23:32:50.211Z,100375.63
2022-12-23T23:35:36.345Z,100378.22
2022-12-23T23:38:22.258Z,100383.03
2022-12-23T23:41:07.569Z,100383.88
2022-12-23T23:43:52.662Z,100377.81
2022-12-23T23:46:39.055Z,100390.25
2022-12-23T23:49:24.362Z,100386.47
2022-12-23T23:52:09.637Z,100396.69
2022-12-23T23:54:55.314Z,100403.50
2022-12-23T23:57:40.303Z,100405.50
